Terminal Aerodrome Forecast
Issued by NWS Cleveland, OH

Home | Current Version | Previous Version | Text Only | Print | Product List | Glossary Off
Versions: 1 2 3 4 5 6 7 8 9 10 11 12 13 14 15

000
FTUS41 KCLE 191901 AAA
TAFMFD
TAF AMD
KMFD 191901Z 1919/2018 25010G16KT P6SM VCSH BKN050
      TEMPO 1921/1924 4SM -TSRA BKN030CB
     FM200100 24006KT P6SM SCT050 BKN100
     FM201600 26012G18KT P6SM BKN045=

USA.gov is the U.S. government's official web portal to all federal, state and local government web resources and services.